Time;durP1;ratioP1;P1;durP2;ratioP2;P2;SDS_P1;SDS_P2;PMS_P1;PMS_P2;Temp;Humidity;BMP_temperature;BMP_pressure;BME280_temperature;BME280_humidity;BME280_pressure;Samples;Min_cycle;Max_cycle;Signal;HPM_P1;HPM_P2
2023/10/27 00:01:56;;;;;;;2.03;1.30;;;9.30;99.90;;;;;;5088838;28;20226;-73
2023/10/27 00:04:22;;;;;;;3.80;1.60;;;9.30;99.90;;;;;;5092592;28;20180;-72
2023/10/27 00:06:47;;;;;;;3.53;1.67;;;9.30;99.90;;;;;;5096631;28;20204;-75
2023/10/27 00:09:13;;;;;;;5.70;2.10;;;9.40;99.90;;;;;;5093357;28;20185;-75
2023/10/27 00:11:38;;;;;;;7.40;2.20;;;9.40;99.90;;;;;;5093024;28;20265;-72
2023/10/27 00:14:04;;;;;;;5.70;2.20;;;9.40;99.90;;;;;;5092823;28;20219;-73
2023/10/27 00:16:30;;;;;;;2.77;1.27;;;9.40;99.90;;;;;;5091687;28;20654;-72
2023/10/27 00:18:55;;;;;;;12.03;1.40;;;9.40;99.90;;;;;;5091796;28;20649;-73
2023/10/27 00:21:21;;;;;;;5.20;1.83;;;9.30;99.90;;;;;;5071147;28;20532;-74
2023/10/27 00:23:47;;;;;;;8.90;2.03;;;9.30;99.90;;;;;;5092721;28;20184;-72
2023/10/27 00:26:13;;;;;;;2.90;1.30;;;9.30;99.90;;;;;;5093041;28;20760;-73
2023/10/27 00:28:38;;;;;;;3.70;2.03;;;9.30;99.90;;;;;;5093312;28;20211;-72
2023/10/27 00:31:04;;;;;;;2.80;1.97;;;9.20;99.90;;;;;;5096201;28;20466;-73
2023/10/27 00:33:29;;;;;;;5.43;1.83;;;9.20;99.90;;;;;;5104621;28;20245;-74
2023/10/27 00:35:55;;;;;;;3.50;2.17;;;9.20;99.90;;;;;;5093214;28;20569;-71
2023/10/27 00:38:21;;;;;;;3.10;1.60;;;9.20;99.90;;;;;;5093033;28;20177;-69
2023/10/27 00:40:47;;;;;;;3.07;1.60;;;9.20;99.90;;;;;;5098314;28;20183;-69
2023/10/27 00:43:16;;;;;;;3.00;1.37;;;9.20;99.90;;;;;;5101680;28;20898;-70
2023/10/27 00:45:52;;;;;;;5.27;2.00;;;9.20;99.90;;;;;;5093377;28;20208;-72
2023/10/27 00:48:19;;;;;;;4.20;1.60;;;9.20;99.90;;;;;;5093156;28;20426;-70
2023/10/27 00:50:46;;;;;;;4.50;1.27;;;9.10;99.90;;;;;;5089043;28;20419;-69
2023/10/27 00:53:13;;;;;;;2.13;1.33;;;9.10;99.90;;;;;;5091798;28;20414;-71
2023/10/27 00:55:40;;;;;;;1.97;1.10;;;9.20;99.90;;;;;;5099680;28;20836;-69
2023/10/27 00:58:08;;;;;;;5.03;2.20;;;9.10;99.90;;;;;;5075022;28;20814;-69
2023/10/27 01:00:34;;;;;;;2.10;1.10;;;9.10;99.90;;;;;;5093072;28;20418;-70
2023/10/27 01:03:00;;;;;;;2.07;1.20;;;9.10;99.90;;;;;;5090426;28;20478;-70
2023/10/27 01:05:25;;;;;;;4.73;1.53;;;9.10;99.90;;;;;;5095371;28;20453;-71
2023/10/27 01:07:51;;;;;;;2.13;1.23;;;9.10;99.90;;;;;;5091796;28;20205;-72
2023/10/27 01:10:17;;;;;;;1.67;1.07;;;9.10;99.90;;;;;;5092182;28;20180;-73
2023/10/27 01:12:46;;;;;;;1.93;1.03;;;9.10;99.90;;;;;;5092239;28;20200;-70
2023/10/27 01:15:12;;;;;;;10.00;1.50;;;9.10;99.90;;;;;;5092031;28;20191;-70
2023/10/27 01:17:38;;;;;;;2.27;1.23;;;9.10;99.90;;;;;;5091571;28;20419;-70
2023/10/27 01:20:04;;;;;;;2.17;1.33;;;9.10;99.90;;;;;;5089725;28;20575;-72
2023/10/27 01:22:31;;;;;;;2.23;1.13;;;9.10;99.90;;;;;;5098831;28;20209;-71
2023/10/27 01:24:57;;;;;;;11.80;1.93;;;9.10;99.90;;;;;;5092231;28;20456;-71
2023/10/27 01:27:22;;;;;;;5.77;1.80;;;9.00;99.90;;;;;;5091949;28;21107;-71
2023/10/27 01:29:48;;;;;;;3.43;0.93;;;9.00;99.90;;;;;;5091705;28;20180;-70
2023/10/27 01:32:13;;;;;;;2.50;1.63;;;9.10;99.90;;;;;;5073545;28;20728;-73
2023/10/27 01:34:39;;;;;;;2.80;1.33;;;9.10;99.90;;;;;;5091883;28;20177;-71
2023/10/27 01:37:04;;;;;;;8.83;1.53;;;9.00;99.90;;;;;;5091599;28;20561;-70
2023/10/27 01:39:30;;;;;;;8.73;1.17;;;9.00;99.90;;;;;;5092020;28;20188;-70
2023/10/27 01:41:56;;;;;;;1.60;0.83;;;9.00;99.90;;;;;;5088371;28;20580;-73
2023/10/27 01:44:21;;;;;;;3.33;1.43;;;9.10;99.90;;;;;;5091499;28;20251;-71
2023/10/27 01:46:47;;;;;;;2.23;0.80;;;9.00;99.90;;;;;;5091911;28;20226;-70
2023/10/27 01:49:12;;;;;;;5.67;2.20;;;9.10;99.90;;;;;;5091360;28;20184;-70
2023/10/27 01:51:38;;;;;;;2.90;1.67;;;9.10;99.90;;;;;;5091241;28;20205;-72
2023/10/27 01:54:04;;;;;;;2.90;1.27;;;9.10;99.90;;;;;;5072745;28;20203;-71
2023/10/27 01:56:30;;;;;;;3.37;1.03;;;9.00;99.90;;;;;;5091284;28;20185;-70
2023/10/27 01:58:56;;;;;;;1.97;0.97;;;9.00;99.90;;;;;;5091345;28;20275;-71
2023/10/27 02:01:21;;;;;;;4.70;1.20;;;8.90;99.90;;;;;;5094158;28;20667;-73
2023/10/27 02:03:47;;;;;;;3.53;1.20;;;8.90;99.90;;;;;;5089632;28;20207;-72
2023/10/27 02:06:13;;;;;;;6.83;1.20;;;9.00;99.90;;;;;;5073689;28;20208;-72
2023/10/27 02:08:38;;;;;;;2.90;1.67;;;9.00;99.90;;;;;;5091046;28;20179;-73
2023/10/27 02:11:05;;;;;;;2.77;1.30;;;8.90;99.90;;;;;;5090903;28;20196;-72
2023/10/27 02:13:31;;;;;;;7.80;1.53;;;9.00;99.90;;;;;;5090938;28;20212;-72
2023/10/27 02:15:56;;;;;;;1.80;1.00;;;8.80;99.90;;;;;;5064135;28;21090;-73
2023/10/27 02:18:22;;;;;;;2.43;1.20;;;8.90;99.90;;;;;;5094942;28;20172;-72
2023/10/27 02:20:48;;;;;;;4.53;1.53;;;8.80;99.90;;;;;;5090581;28;20185;-72
2023/10/27 02:23:17;;;;;;;4.40;1.17;;;8.80;99.90;;;;;;5090577;28;20192;-72
2023/10/27 02:25:43;;;;;;;2.67;1.10;;;8.90;99.90;;;;;;5093271;28;20432;-72
2023/10/27 02:28:08;;;;;;;1.70;0.80;;;8.80;99.90;;;;;;5100650;28;20981;-70
2023/10/27 02:30:34;;;;;;;2.73;1.17;;;8.80;99.90;;;;;;5084422;28;20176;-72
2023/10/27 02:32:59;;;;;;;2.00;1.10;;;8.90;99.90;;;;;;5092181;28;20728;-71
2023/10/27 02:35:25;;;;;;;3.30;1.13;;;8.90;99.90;;;;;;5083133;28;20323;-73
2023/10/27 02:37:53;;;;;;;1.73;1.00;;;8.90;99.90;;;;;;5090620;28;20268;-71
2023/10/27 02:40:19;;;;;;;2.80;1.53;;;8.90;99.90;;;;;;5082568;28;20177;-76
2023/10/27 02:42:45;;;;;;;2.13;0.97;;;8.90;99.90;;;;;;5090798;28;20522;-76
2023/10/27 02:45:10;;;;;;;36.50;2.63;;;8.80;99.90;;;;;;5090584;28;20228;-72
2023/10/27 02:47:36;;;;;;;1.97;0.90;;;8.90;99.90;;;;;;5090819;28;20290;-72
2023/10/27 02:50:02;;;;;;;3.63;1.23;;;8.90;99.90;;;;;;5085968;28;20205;-74
2023/10/27 02:52:27;;;;;;;4.00;0.90;;;8.90;99.90;;;;;;5090574;28;20261;-74
2023/10/27 02:54:53;;;;;;;2.80;1.37;;;8.90;99.90;;;;;;5090886;28;20180;-72
2023/10/27 02:57:18;;;;;;;2.63;1.40;;;8.90;99.90;;;;;;5072786;28;20375;-72
2023/10/27 02:59:44;;;;;;;4.43;1.30;;;8.80;99.90;;;;;;5091139;28;20181;-72
2023/10/27 03:02:11;;;;;;;13.00;1.27;;;8.80;99.90;;;;;;5073069;28;20584;-75
2023/10/27 03:04:36;;;;;;;2.10;1.50;;;8.80;99.90;;;;;;5072079;28;20184;-72
2023/10/27 03:07:02;;;;;;;1.47;0.87;;;8.80;99.90;;;;;;5093371;28;20458;-75
2023/10/27 03:09:28;;;;;;;5.93;1.53;;;8.80;99.90;;;;;;5091280;28;20188;-73
2023/10/27 03:11:53;;;;;;;4.63;1.43;;;8.80;99.90;;;;;;5096224;28;20208;-70
2023/10/27 03:14:19;;;;;;;2.47;1.00;;;8.80;99.90;;;;;;5106973;28;20169;-80
2023/10/27 03:16:45;;;;;;;1.93;0.90;;;8.80;99.90;;;;;;5121835;28;20168;-76
2023/10/27 03:19:11;;;;;;;2.27;1.00;;;8.70;99.90;;;;;;5119799;28;20206;-80
2023/10/27 03:21:36;;;;;;;2.10;0.90;;;8.80;99.90;;;;;;5112827;28;20264;-74
2023/10/27 03:24:02;;;;;;;2.70;0.90;;;8.70;99.90;;;;;;5102336;28;20730;-70
2023/10/27 03:26:28;;;;;;;2.30;1.17;;;8.70;99.90;;;;;;5103069;28;20575;-70
2023/10/27 03:28:54;;;;;;;2.80;0.97;;;8.70;99.90;;;;;;5094229;28;20513;-75
2023/10/27 03:31:19;;;;;;;3.00;1.23;;;8.70;99.90;;;;;;5094297;28;20684;-72
2023/10/27 03:33:45;;;;;;;11.70;1.20;;;8.70;99.90;;;;;;5090447;28;20180;-70
2023/10/27 03:36:11;;;;;;;2.33;1.00;;;8.70;99.90;;;;;;5094064;28;20185;-69
2023/10/27 03:38:36;;;;;;;2.27;0.90;;;8.60;99.90;;;;;;5093900;28;20433;-69
2023/10/27 03:41:02;;;;;;;2.90;1.10;;;8.70;99.90;;;;;;5093834;28;20208;-69
2023/10/27 03:43:29;;;;;;;8.30;1.40;;;8.60;99.90;;;;;;5093804;28;20600;-70
2023/10/27 03:45:54;;;;;;;1.57;0.70;;;8.60;99.90;;;;;;5084956;28;20677;-68
2023/10/27 03:48:20;;;;;;;1.37;0.77;;;8.70;99.90;;;;;;5092798;28;20414;-70
2023/10/27 03:50:45;;;;;;;2.03;0.63;;;8.70;99.90;;;;;;5089963;28;20204;-72
2023/10/27 03:53:11;;;;;;;4.10;0.80;;;8.80;99.90;;;;;;5093728;28;20177;-70
2023/10/27 03:55:36;;;;;;;4.00;1.00;;;8.70;99.90;;;;;;5093903;28;20177;-70
2023/10/27 03:58:15;;;;;;;1.67;0.70;;;8.70;99.90;;;;;;5093816;28;20181;-70
2023/10/27 04:00:41;;;;;;;2.47;1.17;;;8.70;99.90;;;;;;5093785;28;20253;-70
2023/10/27 04:03:06;;;;;;;2.63;1.13;;;8.70;99.90;;;;;;5093198;28;20411;-70
2023/10/27 04:05:32;;;;;;;2.07;1.13;;;8.70;99.90;;;;;;5097234;28;20486;-71
2023/10/27 04:07:57;;;;;;;1.97;0.90;;;8.70;99.90;;;;;;5093406;28;20207;-73
2023/10/27 04:10:23;;;;;;;2.90;1.23;;;8.80;99.90;;;;;;5102367;28;20177;-70
2023/10/27 04:12:49;;;;;;;1.20;0.60;;;8.70;99.90;;;;;;5093674;28;20625;-70
2023/10/27 04:15:14;;;;;;;5.07;0.80;;;8.70;99.90;;;;;;5093835;28;20204;-71
2023/10/27 04:17:40;;;;;;;1.77;0.80;;;8.80;99.90;;;;;;5093349;28;20260;-70
2023/10/27 04:20:06;;;;;;;1.80;0.70;;;8.70;99.90;;;;;;5089284;28;20197;-70
2023/10/27 04:22:32;;;;;;;1.90;1.00;;;8.70;99.90;;;;;;5093213;28;20193;-71
2023/10/27 04:24:57;;;;;;;2.30;1.07;;;8.80;99.90;;;;;;5093472;28;20940;-69
2023/10/27 04:27:23;;;;;;;1.33;0.80;;;8.70;99.90;;;;;;5091759;28;20295;-69
2023/10/27 04:29:49;;;;;;;12.73;1.70;;;8.80;99.90;;;;;;5093019;28;20205;-71
2023/10/27 04:32:15;;;;;;;4.33;1.43;;;8.80;99.90;;;;;;5092707;28;20685;-69
2023/10/27 04:34:44;;;;;;;1.77;1.00;;;8.80;99.90;;;;;;5066720;28;20250;-70
2023/10/27 04:37:10;;;;;;;2.13;1.30;;;8.80;99.90;;;;;;5092685;28;20421;-70
2023/10/27 04:39:36;;;;;;;3.50;1.13;;;8.80;99.90;;;;;;5073962;28;20430;-70
2023/10/27 04:42:02;;;;;;;4.23;1.50;;;8.80;99.90;;;;;;5090335;28;20442;-70
2023/10/27 04:44:28;;;;;;;2.47;1.10;;;8.80;99.90;;;;;;5092331;28;20231;-71
2023/10/27 04:46:53;;;;;;;1.70;1.10;;;8.80;99.90;;;;;;5092490;28;20767;-70
2023/10/27 04:49:19;;;;;;;4.30;1.17;;;8.80;99.90;;;;;;5091978;28;20179;-73
2023/10/27 04:51:45;;;;;;;1.50;0.83;;;8.90;99.90;;;;;;5092234;28;20203;-70
2023/10/27 04:54:11;;;;;;;4.20;1.03;;;8.80;99.90;;;;;;5092317;28;20176;-70
2023/10/27 04:56:36;;;;;;;1.93;1.00;;;8.80;99.90;;;;;;5092246;28;20423;-70
2023/10/27 04:59:03;;;;;;;1.80;0.80;;;8.80;99.90;;;;;;5091689;28;20188;-71
2023/10/27 05:01:28;;;;;;;3.50;1.30;;;8.80;99.90;;;;;;5092735;28;20745;-72
2023/10/27 05:03:54;;;;;;;2.93;1.23;;;8.80;99.90;;;;;;5091924;28;20419;-70
2023/10/27 05:06:20;;;;;;;4.83;1.57;;;8.80;99.90;;;;;;5086531;28;20211;-70
2023/10/27 05:08:45;;;;;;;1.40;0.83;;;8.80;99.90;;;;;;5091831;28;20204;-75
2023/10/27 05:11:11;;;;;;;4.70;1.47;;;8.80;99.90;;;;;;5092093;28;20192;-70
2023/10/27 05:13:37;;;;;;;1.90;0.70;;;8.80;99.90;;;;;;5092726;28;20234;-71
2023/10/27 05:16:04;;;;;;;2.90;1.23;;;8.80;99.90;;;;;;5094033;28;20426;-73
2023/10/27 05:18:29;;;;;;;1.63;1.10;;;8.80;99.90;;;;;;5094196;28;20467;-73
2023/10/27 05:20:55;;;;;;;2.40;0.97;;;8.80;99.90;;;;;;5093589;28;20426;-72
2023/10/27 05:23:21;;;;;;;2.13;0.70;;;8.90;99.90;;;;;;5098828;28;20646;-72
2023/10/27 05:25:46;;;;;;;2.80;1.07;;;8.90;99.90;;;;;;5092344;28;20426;-72
2023/10/27 05:28:12;;;;;;;1.67;0.90;;;8.80;99.90;;;;;;5092566;28;20333;-73
2023/10/27 05:30:38;;;;;;;4.50;1.37;;;8.80;99.90;;;;;;5092117;28;20180;-71
2023/10/27 05:33:03;;;;;;;2.90;1.53;;;8.80;99.90;;;;;;5091261;28;20197;-74
2023/10/27 05:35:29;;;;;;;6.17;1.63;;;8.80;99.90;;;;;;5091421;28;20635;-72
2023/10/27 05:37:55;;;;;;;5.30;2.33;;;8.80;99.90;;;;;;5091273;28;20271;-77
2023/10/27 05:40:20;;;;;;;5.40;2.67;;;8.80;99.90;;;;;;5095417;28;20184;-74
2023/10/27 05:42:46;;;;;;;3.00;1.50;;;8.80;99.90;;;;;;5091054;28;20585;-72
2023/10/27 05:45:11;;;;;;;2.23;1.23;;;8.80;99.90;;;;;;5093403;28;20293;-73
2023/10/27 05:47:40;;;;;;;2.50;1.43;;;8.90;99.90;;;;;;5107231;28;20211;-71
2023/10/27 05:50:07;;;;;;;2.43;1.63;;;8.80;99.90;;;;;;5093073;28;20177;-72
2023/10/27 05:52:33;;;;;;;1.93;0.93;;;8.80;99.90;;;;;;5090882;28;20911;-73
2023/10/27 05:54:58;;;;;;;1.63;0.90;;;8.90;99.90;;;;;;5091068;28;20461;-72
2023/10/27 05:57:24;;;;;;;5.53;1.43;;;8.90;99.90;;;;;;5091352;28;20803;-72
2023/10/27 05:59:50;;;;;;;2.00;1.20;;;8.90;99.90;;;;;;5087215;28;20561;-71
2023/10/27 06:02:15;;;;;;;2.07;1.50;;;9.00;99.90;;;;;;5092635;28;20211;-72
2023/10/27 06:04:41;;;;;;;2.00;1.13;;;8.90;99.90;;;;;;5096092;28;20179;-75
2023/10/27 06:07:07;;;;;;;1.50;1.00;;;9.00;99.90;;;;;;5097279;28;20196;-71
2023/10/27 06:09:32;;;;;;;4.00;1.70;;;8.80;99.90;;;;;;5092607;28;20183;-72
2023/10/27 06:11:58;;;;;;;3.73;2.30;;;8.80;99.90;;;;;;5091175;28;20200;-72
2023/10/27 06:14:23;;;;;;;4.33;1.27;;;8.90;99.90;;;;;;5091559;28;20169;-73
2023/10/27 06:16:49;;;;;;;2.87;1.37;;;8.90;99.90;;;;;;5091686;28;20187;-75
2023/10/27 06:19:15;;;;;;;3.03;1.27;;;8.90;99.90;;;;;;5090839;28;20241;-71
2023/10/27 06:21:40;;;;;;;3.47;1.57;;;9.00;99.90;;;;;;5091980;28;20685;-72
2023/10/27 06:24:10;;;;;;;3.57;1.40;;;9.00;99.90;;;;;;5098216;28;20238;-72
2023/10/27 06:26:36;;;;;;;2.40;1.43;;;9.00;99.90;;;;;;5097888;28;20269;-72
2023/10/27 06:29:01;;;;;;;2.07;1.10;;;9.00;99.90;;;;;;5064475;28;20414;-71
2023/10/27 06:31:27;;;;;;;2.53;1.60;;;9.00;99.90;;;;;;5069097;28;20466;-71
2023/10/27 06:33:52;;;;;;;4.00;1.53;;;9.10;99.90;;;;;;5087784;28;20223;-72
2023/10/27 06:36:18;;;;;;;2.33;1.20;;;9.10;99.90;;;;;;5092434;28;20184;-73
2023/10/27 06:38:43;;;;;;;6.50;1.83;;;9.20;99.90;;;;;;5091856;28;20740;-73
2023/10/27 06:41:09;;;;;;;1.80;1.20;;;9.10;99.90;;;;;;5087013;28;20200;-72
2023/10/27 06:43:35;;;;;;;1.47;1.00;;;9.10;99.90;;;;;;5095726;28;20220;-74
2023/10/27 06:46:01;;;;;;;1.43;0.80;;;9.10;99.90;;;;;;5089638;28;20192;-73
2023/10/27 06:48:26;;;;;;;3.37;1.30;;;9.00;99.90;;;;;;5066348;28;20261;-72
2023/10/27 06:50:52;;;;;;;2.47;1.27;;;9.20;99.90;;;;;;5088854;28;20474;-72
2023/10/27 06:53:17;;;;;;;2.80;1.30;;;9.20;99.90;;;;;;5087690;28;20405;-71
2023/10/27 06:55:43;;;;;;;2.13;1.20;;;9.20;99.90;;;;;;5090839;28;20176;-72
2023/10/27 06:58:09;;;;;;;3.10;1.10;;;9.20;99.90;;;;;;5090406;28;20641;-72
2023/10/27 07:00:34;;;;;;;3.03;1.10;;;9.20;99.90;;;;;;5093027;28;20564;-72
2023/10/27 07:03:00;;;;;;;2.03;1.10;;;9.30;99.90;;;;;;5089981;28;20250;-72
2023/10/27 07:05:26;;;;;;;4.97;1.70;;;9.30;99.90;;;;;;5096527;28;20655;-71
2023/10/27 07:07:52;;;;;;;2.67;1.13;;;9.30;99.90;;;;;;5095359;28;20206;-72
2023/10/27 07:10:18;;;;;;;1.80;0.90;;;9.30;99.90;;;;;;5099619;28;20183;-72
2023/10/27 07:12:43;;;;;;;1.70;0.80;;;9.30;99.90;;;;;;5064359;28;20445;-72
2023/10/27 07:15:09;;;;;;;3.30;1.00;;;9.50;99.90;;;;;;5088662;28;20177;-75
2023/10/27 07:17:35;;;;;;;2.57;0.90;;;9.40;99.90;;;;;;5093102;28;20197;-72
2023/10/27 07:20:01;;;;;;;2.17;0.70;;;9.40;99.90;;;;;;5096858;28;20418;-72
2023/10/27 07:22:26;;;;;;;1.10;0.50;;;9.40;99.90;;;;;;5093350;28;20261;-72
2023/10/27 07:24:52;;;;;;;1.10;0.50;;;9.40;99.90;;;;;;5086464;28;20561;-72
2023/10/27 07:27:18;;;;;;;1.53;0.77;;;9.50;99.90;;;;;;5094963;28;20200;-75
2023/10/27 07:29:43;;;;;;;1.50;0.60;;;9.50;99.90;;;;;;5067056;28;20184;-75
2023/10/27 07:32:09;;;;;;;1.10;0.53;;;9.60;99.90;;;;;;5092454;28;20204;-73
2023/10/27 07:34:34;;;;;;;2.33;0.83;;;9.60;99.90;;;;;;5090557;28;20642;-72
2023/10/27 07:37:00;;;;;;;1.40;0.87;;;9.80;99.90;;;;;;5090563;28;20189;-73
2023/10/27 07:39:25;;;;;;;3.47;1.13;;;9.60;99.90;;;;;;5101519;28;20213;-77
2023/10/27 07:41:51;;;;;;;1.50;0.87;;;9.70;99.90;;;;;;5090428;28;20211;-72
2023/10/27 07:44:17;;;;;;;1.10;0.50;;;9.60;99.90;;;;;;5066103;28;20308;-72
2023/10/27 07:46:43;;;;;;;1.20;0.60;;;9.50;99.90;;;;;;5083715;28;20468;-72
2023/10/27 07:49:09;;;;;;;1.10;0.50;;;9.50;99.90;;;;;;5090062;28;20693;-76
2023/10/27 07:51:34;;;;;;;1.10;0.50;;;9.40;99.90;;;;;;5092830;28;20578;-72
2023/10/27 07:54:00;;;;;;;1.70;0.70;;;9.40;99.90;;;;;;5086534;28;20217;-73
2023/10/27 07:56:26;;;;;;;1.30;0.50;;;9.40;99.90;;;;;;5089272;28;20188;-72
2023/10/27 07:58:52;;;;;;;1.10;0.50;;;9.40;99.90;;;;;;5095368;28;20645;-72
2023/10/27 08:01:17;;;;;;;1.40;0.60;;;9.40;99.90;;;;;;5093809;28;20212;-71
2023/10/27 08:03:45;;;;;;;1.20;0.53;;;9.30;99.90;;;;;;5094717;28;20185;-72
2023/10/27 08:06:11;;;;;;;1.57;0.60;;;9.30;99.90;;;;;;5093861;28;20659;-71
2023/10/27 08:08:37;;;;;;;1.40;0.47;;;9.40;99.90;;;;;;5090781;28;20423;-72
2023/10/27 08:11:04;;;;;;;1.40;0.70;;;9.40;99.90;;;;;;5096589;28;20212;-72
2023/10/27 08:13:31;;;;;;;6.10;0.50;;;9.50;99.90;;;;;;5106342;28;20419;-74
2023/10/27 08:15:58;;;;;;;1.00;0.50;;;9.30;99.90;;;;;;5112231;28;20423;-80
2023/10/27 08:18:23;;;;;;;1.10;0.50;;;9.30;99.90;;;;;;5109734;28;20429;-72
2023/10/27 08:20:52;;;;;;;1.30;0.53;;;9.30;99.90;;;;;;5109661;28;20434;-77
2023/10/27 08:23:18;;;;;;;1.10;0.50;;;9.40;99.90;;;;;;5095876;28;20184;-75
2023/10/27 08:25:51;;;;;;;1.80;0.53;;;9.30;99.90;;;;;;5079686;28;20450;-71
2023/10/27 08:28:18;;;;;;;1.20;0.57;;;9.50;99.90;;;;;;5095970;28;20450;-72
2023/10/27 08:30:44;;;;;;;1.30;0.50;;;9.40;99.90;;;;;;5098362;28;20415;-72
2023/10/27 08:33:10;;;;;;;3.67;0.83;;;9.40;99.90;;;;;;5096119;28;20425;-71
2023/10/27 08:35:36;;;;;;;1.67;0.80;;;9.60;99.90;;;;;;5098168;28;20418;-71
2023/10/27 08:38:02;;;;;;;1.10;0.50;;;9.50;99.90;;;;;;5094367;28;20487;-71
2023/10/27 08:40:28;;;;;;;1.13;0.53;;;9.50;99.90;;;;;;5098986;28;20175;-74
2023/10/27 08:42:55;;;;;;;1.40;0.60;;;9.50;99.90;;;;;;5091689;28;20200;-74
2023/10/27 08:45:22;;;;;;;1.00;0.50;;;9.50;99.90;;;;;;5096242;28;20434;-72
2023/10/27 08:47:47;;;;;;;1.93;0.63;;;9.50;99.90;;;;;;5088060;28;20835;-72
2023/10/27 08:50:13;;;;;;;1.93;0.80;;;9.60;99.90;;;;;;5095273;28;20429;-71
2023/10/27 08:52:39;;;;;;;1.97;0.93;;;9.50;99.90;;;;;;5095765;28;20220;-71
2023/10/27 08:55:10;;;;;;;1.50;0.70;;;9.50;99.90;;;;;;5096959;28;20641;-71
2023/10/27 08:57:37;;;;;;;1.37;0.67;;;9.50;99.90;;;;;;5087466;28;20445;-74
2023/10/27 09:00:07;;;;;;;1.60;0.77;;;9.50;99.90;;;;;;5092731;28;20417;-71
2023/10/27 09:02:34;;;;;;;1.90;0.87;;;9.50;99.90;;;;;;5093666;28;20603;-71
2023/10/27 09:05:02;;;;;;;1.30;0.57;;;9.60;99.90;;;;;;5096681;28;20934;-71
2023/10/27 09:07:28;;;;;;;1.20;0.50;;;9.60;99.90;;;;;;5097859;28;20470;-70
2023/10/27 09:09:54;;;;;;;1.37;0.60;;;9.60;99.90;;;;;;5100035;28;20429;-73
2023/10/27 09:12:26;;;;;;;1.67;0.90;;;9.50;99.90;;;;;;5100728;28;20587;-71
2023/10/27 09:15:06;;;;;;;2.20;0.77;;;9.60;99.90;;;;;;5099111;28;20176;-71
2023/10/27 09:17:51;;;;;;;1.20;0.50;;;9.60;99.90;;;;;;5096797;28;20410;-72
2023/10/27 09:20:19;;;;;;;1.10;0.50;;;9.60;99.90;;;;;;5084230;28;20419;-72
2023/10/27 09:22:59;;;;;;;1.80;0.87;;;9.60;99.90;;;;;;5095748;28;20454;-75
2023/10/27 09:25:30;;;;;;;1.40;0.50;;;9.60;99.90;;;;;;5098320;28;20806;-73
2023/10/27 09:28:01;;;;;;;2.47;0.90;;;9.60;99.90;;;;;;5077379;28;21017;-71
2023/10/27 09:30:39;;;;;;;2.70;0.97;;;9.70;99.90;;;;;;5092643;28;20996;-72
2023/10/27 09:33:21;;;;;;;4.13;1.53;;;9.80;99.90;;;;;;5098940;28;20835;-76
2023/10/27 09:35:48;;;;;;;4.50;1.43;;;9.70;99.90;;;;;;5091077;28;20928;-71
2023/10/27 09:38:15;;;;;;;2.13;0.90;;;9.70;99.90;;;;;;5097105;28;20509;-72
2023/10/27 09:40:43;;;;;;;2.37;1.10;;;9.80;99.90;;;;;;5086275;28;20509;-71
2023/10/27 09:43:15;;;;;;;1.70;0.80;;;9.90;99.90;;;;;;5087825;28;20462;-72
2023/10/27 09:45:55;;;;;;;2.17;0.90;;;9.90;99.90;;;;;;5090522;28;20430;-75
2023/10/27 09:48:31;;;;;;;1.77;0.93;;;10.00;99.90;;;;;;5093220;28;20850;-71
2023/10/27 09:51:07;;;;;;;4.23;1.73;;;10.10;99.90;;;;;;5093388;28;20433;-72
2023/10/27 09:53:33;;;;;;;1.93;1.17;;;10.20;99.90;;;;;;5085204;28;20484;-72
2023/10/27 09:56:00;;;;;;;7.77;1.03;;;10.20;99.90;;;;;;5095180;28;20499;-69
2023/10/27 09:58:32;;;;;;;1.30;0.70;;;10.20;99.90;;;;;;5086272;28;20180;-73
2023/10/27 10:00:59;;;;;;;1.70;0.80;;;10.20;99.90;;;;;;5090501;28;20473;-71
2023/10/27 10:03:27;;;;;;;9.33;1.20;;;10.30;99.90;;;;;;5084712;28;20776;-72
2023/10/27 10:06:12;;;;;;;7.63;1.40;;;10.40;99.90;;;;;;5080701;28;20431;-70
2023/10/27 10:08:40;;;;;;;2.93;1.10;;;10.60;99.90;;;;;;5080205;28;20416;-72
2023/10/27 10:11:15;;;;;;;3.70;1.10;;;10.60;99.90;;;;;;5088214;28;20430;-76
2023/10/27 10:13:40;;;;;;;2.60;1.00;;;10.80;99.90;;;;;;5069382;28;20512;-71
2023/10/27 10:16:07;;;;;;;2.40;1.00;;;10.90;99.90;;;;;;5095144;28;20512;-75
2023/10/27 10:18:45;;;;;;;5.53;1.40;;;10.80;99.90;;;;;;5097086;28;20214;-72
2023/10/27 10:21:29;;;;;;;4.20;1.50;;;10.90;99.90;;;;;;5076718;28;20547;-72
2023/10/27 10:24:03;;;;;;;4.30;1.20;;;10.90;99.90;;;;;;5087669;28;20423;-72
2023/10/27 10:27:02;;;;;;;5.50;0.73;;;11.00;99.90;;;;;;5088906;28;20449;-73
2023/10/27 10:29:28;;;;;;;1.47;0.93;;;10.90;99.90;;;;;;5100156;28;20968;-73
2023/10/27 10:32:32;;;;;;;1.73;0.73;;;11.00;99.90;;;;;;5092709;28;20438;-73
2023/10/27 10:35:24;;;;;;;9.97;0.80;;;10.90;99.90;;;;;;5092467;28;20287;-70
2023/10/27 10:37:54;;;;;;;2.47;1.17;;;10.90;99.90;;;;;;5066823;28;20529;-72
2023/10/27 10:40:22;;;;;;;2.60;1.17;;;11.10;99.90;;;;;;5093757;28;20429;-72
2023/10/27 10:43:38;;;;;;;2.73;0.70;;;11.10;99.90;;;;;;5093570;28;20796;-71
2023/10/27 10:46:06;;;;;;;8.00;1.00;;;11.10;99.90;;;;;;5096196;28;20822;-72
2023/10/27 10:48:36;;;;;;;3.57;0.93;;;11.00;99.90;;;;;;5092962;28;20449;-72
2023/10/27 10:51:15;;;;;;;1.53;0.77;;;11.00;99.90;;;;;;5091766;28;20438;-72
2023/10/27 10:53:42;;;;;;;4.53;1.77;;;11.00;99.90;;;;;;5090509;28;20418;-72
2023/10/27 10:56:07;;;;;;;2.37;1.10;;;11.00;99.90;;;;;;5096520;28;20480;-75
2023/10/27 10:58:35;;;;;;;1.30;0.67;;;11.00;99.90;;;;;;5087393;28;20410;-75
2023/10/27 11:01:03;;;;;;;4.50;0.93;;;11.00;99.90;;;;;;5094269;28;20321;-76
2023/10/27 11:03:33;;;;;;;4.17;0.80;;;11.10;99.90;;;;;;5089849;28;20895;-72
2023/10/27 11:06:01;;;;;;;4.40;1.00;;;11.30;99.90;;;;;;5074599;28;20419;-76
2023/10/27 11:08:29;;;;;;;2.03;0.87;;;11.60;99.90;;;;;;5076903;28;20466;-73
2023/10/27 11:11:14;;;;;;;1.97;0.87;;;11.60;99.90;;;;;;5093247;28;21042;-73
2023/10/27 11:13:49;;;;;;;2.37;0.83;;;11.70;99.90;;;;;;5086925;28;20493;-72
2023/10/27 11:16:21;;;;;;;4.23;0.83;;;11.80;99.90;;;;;;5095548;28;20911;-72
2023/10/27 11:18:57;;;;;;;1.40;0.70;;;12.00;99.90;;;;;;5095356;28;20414;-72
2023/10/27 11:21:27;;;;;;;2.30;0.80;;;12.20;99.90;;;;;;5091364;28;20440;-76
2023/10/27 11:23:53;;;;;;;1.60;0.70;;;12.20;99.90;;;;;;5085245;28;20433;-72
2023/10/27 11:26:20;;;;;;;1.77;0.60;;;12.40;99.90;;;;;;5092362;28;20418;-72
2023/10/27 11:28:47;;;;;;;2.73;0.90;;;12.50;99.90;;;;;;5087694;28;20920;-75
2023/10/27 11:31:28;;;;;;;1.70;0.80;;;12.60;99.90;;;;;;5093872;28;20434;-70
2023/10/27 11:34:04;;;;;;;5.43;0.83;;;12.70;99.90;;;;;;5089156;28;20408;-71
2023/10/27 11:36:34;;;;;;;2.90;1.00;;;12.70;99.90;;;;;;5084971;28;20437;-70
2023/10/27 11:39:15;;;;;;;2.47;1.00;;;12.60;99.90;;;;;;5096105;28;20410;-71
2023/10/27 11:41:48;;;;;;;4.83;0.97;;;12.50;99.90;;;;;;5094203;28;20840;-71
2023/10/27 11:44:15;;;;;;;1.60;0.60;;;12.40;99.90;;;;;;5096225;28;20449;-73
2023/10/27 11:46:55;;;;;;;4.33;0.80;;;12.30;99.90;;;;;;5091087;28;20918;-73
2023/10/27 11:49:21;;;;;;;5.07;0.73;;;12.30;99.90;;;;;;5092044;28;20422;-72
2023/10/27 11:51:48;;;;;;;2.90;1.00;;;12.20;99.90;;;;;;5092802;28;20495;-68
2023/10/27 11:54:15;;;;;;;1.30;0.60;;;12.20;99.90;;;;;;5095857;28;21009;-73
2023/10/27 11:56:41;;;;;;;2.90;0.93;;;12.10;99.90;;;;;;5093553;28;20831;-73
2023/10/27 11:59:07;;;;;;;6.90;0.80;;;11.90;99.90;;;;;;5089213;28;20867;-72
2023/10/27 12:01:33;;;;;;;7.67;1.77;;;11.80;99.90;;;;;;5099437;28;20520;-71
2023/10/27 12:04:00;;;;;;;3.20;0.57;;;11.70;99.90;;;;;;5095160;28;20422;-73
2023/10/27 12:06:26;;;;;;;2.07;0.83;;;11.60;99.90;;;;;;5091931;28;20598;-74
2023/10/27 12:08:51;;;;;;;1.53;0.60;;;11.60;99.90;;;;;;5095979;28;20410;-72
2023/10/27 12:11:17;;;;;;;1.50;0.70;;;11.80;99.90;;;;;;5094199;28;20215;-71
2023/10/27 12:13:44;;;;;;;2.70;1.13;;;11.80;99.90;;;;;;5095853;28;20582;-72
2023/10/27 12:16:10;;;;;;;6.20;1.20;;;11.80;99.90;;;;;;5099430;28;20183;-70
2023/10/27 12:18:36;;;;;;;1.20;0.50;;;11.80;99.90;;;;;;5095123;28;20442;-72
2023/10/27 12:21:01;;;;;;;1.60;0.60;;;11.80;99.90;;;;;;5090189;28;20253;-72
2023/10/27 12:23:32;;;;;;;1.20;0.60;;;11.80;99.90;;;;;;5089262;28;20184;-71
2023/10/27 12:26:01;;;;;;;2.13;0.70;;;11.60;99.90;;;;;;5089093;28;20654;-72
2023/10/27 12:28:27;;;;;;;3.23;1.20;;;11.70;99.90;;;;;;5094197;28;20461;-70
2023/10/27 12:30:58;;;;;;;2.70;0.73;;;11.80;99.90;;;;;;5097508;28;20545;-71
2023/10/27 12:33:24;;;;;;;1.50;0.67;;;11.80;99.90;;;;;;5091789;28;20930;-72
2023/10/27 12:35:50;;;;;;;1.77;0.67;;;11.80;99.90;;;;;;5095091;28;20501;-72
2023/10/27 12:38:20;;;;;;;4.63;1.00;;;11.90;99.90;;;;;;5096662;28;20668;-72
2023/10/27 12:40:47;;;;;;;4.90;0.97;;;11.90;99.90;;;;;;5096705;28;20418;-72
2023/10/27 12:43:14;;;;;;;10.43;0.70;;;11.80;99.90;;;;;;5093325;28;20571;-72
2023/10/27 12:45:43;;;;;;;4.03;0.70;;;11.50;99.90;;;;;;5095698;28;20516;-74
2023/10/27 12:48:09;;;;;;;1.30;0.70;;;11.40;99.90;;;;;;5092956;28;20818;-71
2023/10/27 12:50:36;;;;;;;5.10;0.73;;;11.30;99.90;;;;;;5089172;28;20425;-72
2023/10/27 12:53:03;;;;;;;1.77;1.00;;;11.30;99.90;;;;;;5101873;28;20440;-73
2023/10/27 12:55:32;;;;;;;3.63;0.70;;;11.20;99.90;;;;;;5097386;28;20408;-74
2023/10/27 12:57:58;;;;;;;2.50;0.73;;;11.20;99.90;;;;;;5074411;28;20425;-74